createdAt,value
2022-10-13T00:02:08.105Z,4.25
2022-10-13T00:06:05.480Z,4.25
2022-10-13T00:10:05.942Z,4.25
2022-10-13T00:14:05.966Z,4.25
2022-10-13T00:18:05.807Z,4.25
2022-10-13T00:22:05.906Z,4.25
2022-10-13T00:26:05.514Z,4.25
2022-10-13T00:30:11.933Z,4.25
2022-10-13T00:34:05.530Z,4.25
2022-10-13T00:38:05.454Z,4.25
2022-10-13T00:42:05.224Z,5.06
2022-10-13T00:46:05.910Z,5.06
2022-10-13T00:50:05.243Z,5.06
2022-10-13T00:54:05.678Z,5.06
2022-10-13T00:58:05.508Z,5.06
2022-10-13T01:02:10.257Z,5.06
2022-10-13T01:06:05.346Z,5.06
2022-10-13T01:10:05.847Z,5.06
2022-10-13T01:14:05.685Z,5.06
2022-10-13T01:18:05.140Z,5.06
2022-10-13T01:22:05.559Z,5.06
2022-10-13T01:26:05.023Z,5.06
2022-10-13T01:30:05.936Z,5.06
2022-10-13T01:34:05.717Z,5.06
2022-10-13T01:38:05.749Z,5.06
2022-10-13T01:42:07.196Z,5.06
2022-10-13T01:46:05.930Z,5.06
2022-10-13T01:50:05.825Z,5.06
2022-10-13T01:54:05.879Z,5.06
2022-10-13T01:58:05.627Z,5.06
2022-10-13T02:02:08.655Z,5.06
2022-10-13T02:06:05.565Z,5.06
2022-10-13T02:10:05.612Z,5.06
2022-10-13T02:14:05.855Z,5.06
2022-10-13T02:18:05.092Z,5.06
2022-10-13T02:22:05.508Z,5.06
2022-10-13T02:26:05.046Z,5.06
2022-10-13T02:30:06.047Z,5.06
2022-10-13T02:34:05.250Z,5.06
2022-10-13T02:38:05.715Z,5.06
2022-10-13T02:42:04.952Z,5.06
2022-10-13T02:46:05.077Z,5.06
2022-10-13T02:50:05.554Z,5.06
2022-10-13T02:54:05.827Z,5.06
2022-10-13T02:58:05.087Z,5.06
2022-10-13T03:02:08.357Z,5.06
2022-10-13T03:06:05.120Z,5.06
2022-10-13T03:10:05.331Z,5.06
2022-10-13T03:14:05.680Z,5.06
2022-10-13T03:18:09.809Z,5.06
2022-10-13T03:22:05.396Z,5.06
2022-10-13T03:26:06.013Z,5.06
2022-10-13T03:30:05.306Z,5.06
2022-10-13T03:34:05.389Z,5.06
2022-10-13T03:38:05.724Z,5.06
2022-10-13T03:42:05.184Z,5.06
2022-10-13T03:46:05.619Z,5.06
2022-10-13T03:50:05.401Z,5.06
2022-10-13T03:54:05.528Z,5.06
2022-10-13T03:58:05.100Z,5.06
2022-10-13T04:02:09.095Z,5.06
2022-10-13T04:06:04.850Z,5.06
2022-10-13T04:10:07.906Z,5.06
2022-10-13T04:14:12.122Z,5.06
2022-10-13T04:18:05.652Z,5.06
2022-10-13T04:22:05.981Z,5.06
2022-10-13T04:26:04.924Z,5.06
2022-10-13T04:30:05.763Z,5.06
2022-10-13T04:34:05.131Z,5.06
2022-10-13T04:38:07.805Z,5.06
2022-10-13T04:42:05.597Z,5.06
2022-10-13T04:46:04.873Z,5.06
2022-10-13T04:50:05.053Z,5.06
2022-10-13T04:54:05.762Z,5.06
2022-10-13T04:58:05.493Z,5.06
2022-10-13T05:02:14.019Z,5.06
2022-10-13T05:06:05.794Z,5.06
2022-10-13T05:10:05.970Z,5.06
2022-10-13T05:14:05.600Z,5.06
2022-10-13T05:18:09.569Z,5.06
2022-10-13T05:22:05.949Z,5.06
2022-10-13T05:26:08.087Z,5.06
2022-10-13T05:30:06.460Z,5.06
2022-10-13T05:34:12.559Z,5.06
2022-10-13T05:38:04.925Z,5.06
2022-10-13T05:42:05.386Z,5.06
2022-10-13T05:46:05.917Z,5.06
2022-10-13T05:50:04.931Z,5.06
2022-10-13T05:54:11.670Z,5.06
2022-10-13T05:58:05.552Z,5.06
2022-10-13T06:02:05.554Z,5.06
2022-10-13T06:06:04.975Z,5.06
2022-10-13T06:10:05.143Z,5.06
2022-10-13T06:14:05.506Z,5.06
2022-10-13T06:18:05.702Z,5.06
2022-10-13T06:22:05.524Z,5.06
2022-10-13T06:26:05.143Z,5.06
2022-10-13T06:30:10.037Z,5.06
2022-10-13T06:34:05.982Z,5.06
2022-10-13T06:38:12.325Z,5.06
2022-10-13T06:42:05.989Z,5.06
2022-10-13T06:46:05.018Z,5.06
2022-10-13T06:50:05.869Z,5.06
2022-10-13T06:54:05.234Z,5.06
2022-10-13T06:58:05.794Z,5.06
2022-10-13T07:02:15.073Z,5.06
2022-10-13T07:06:05.376Z,5.06
2022-10-13T07:10:06.018Z,5.06
2022-10-13T07:14:11.514Z,5.06
2022-10-13T07:18:06.407Z,5.06
2022-10-13T07:22:11.002Z,5.06
2022-10-13T07:26:05.036Z,5.06
2022-10-13T07:30:05.950Z,5.06
2022-10-13T07:34:06.006Z,5.06
2022-10-13T07:38:05.597Z,5.06
2022-10-13T07:42:08.878Z,5.06
2022-10-13T07:46:05.201Z,5.06
2022-10-13T07:50:09.909Z,23.72
2022-10-13T07:54:05.110Z,23.72
2022-10-13T07:58:05.069Z,23.72
2022-10-13T08:02:08.419Z,23.72
2022-10-13T08:06:05.182Z,23.72
2022-10-13T08:10:05.015Z,23.72
2022-10-13T08:14:06.132Z,23.72
2022-10-13T08:18:10.101Z,23.72
2022-10-13T08:23:12.304Z,23.72
2022-10-13T08:26:05.206Z,23.72
2022-10-13T08:30:30.887Z,23.72
2022-10-13T08:34:05.390Z,23.72
2022-10-13T08:38:06.154Z,23.72
2022-10-13T08:42:05.754Z,23.72
2022-10-13T08:47:33.933Z,23.72
2022-10-13T08:50:11.660Z,23.72
2022-10-13T08:54:05.159Z,23.72
2022-10-13T08:58:05.684Z,6.29
2022-10-13T09:02:08.094Z,0.4
2022-10-13T09:06:05.087Z,0.36
2022-10-13T09:10:05.593Z,0.22
2022-10-13T09:14:05.826Z,0.18
2022-10-13T09:18:05.478Z,0.18
2022-10-13T09:22:05.800Z,0.18
2022-10-13T09:26:05.487Z,0.18
2022-10-13T09:30:06.326Z,0.18
2022-10-13T09:34:05.672Z,0.18
2022-10-13T09:38:05.075Z,0.18
2022-10-13T09:42:05.573Z,0.18
2022-10-13T09:46:09.032Z,0.18
2022-10-13T09:50:07.381Z,0.18
2022-10-13T09:54:05.445Z,0.18
2022-10-13T09:58:05.091Z,0.18
2022-10-13T10:02:08.420Z,0.18
2022-10-13T10:06:05.970Z,0.18
2022-10-13T10:10:32.988Z,0.18
2022-10-13T10:14:09.138Z,0.18
2022-10-13T10:18:06.312Z,0.18
2022-10-13T10:22:05.668Z,3.47
2022-10-13T10:26:05.302Z,3.47
2022-10-13T10:30:05.851Z,0.28
2022-10-13T10:34:05.551Z,0.2
2022-10-13T10:38:07.817Z,0.2
2022-10-13T10:42:05.302Z,0.17
2022-10-13T10:46:05.245Z,0.17
2022-10-13T10:50:05.561Z,0.17
2022-10-13T10:54:05.326Z,0.17
2022-10-13T10:58:06.544Z,0.17
2022-10-13T11:02:09.578Z,0.17
2022-10-13T11:06:13.124Z,0.17
2022-10-13T11:10:05.553Z,0.17
2022-10-13T11:14:06.306Z,0.17
2022-10-13T11:18:06.419Z,0.17
2022-10-13T11:22:06.456Z,0.17
2022-10-13T11:26:06.388Z,0.17
2022-10-13T11:30:06.144Z,0.17
2022-10-13T11:34:05.256Z,0.17
2022-10-13T11:38:19.335Z,0.17
2022-10-13T11:42:05.024Z,0.17
2022-10-13T11:46:05.739Z,2.86
2022-10-13T11:50:05.505Z,2.86
2022-10-13T11:54:05.325Z,2.86
2022-10-13T11:58:09.762Z,2.86
2022-10-13T12:02:12.437Z,2.86
2022-10-13T12:06:05.602Z,2.86
2022-10-13T12:10:05.703Z,2.86
2022-10-13T12:14:05.429Z,2.86
2022-10-13T12:18:13.710Z,2.86
2022-10-13T12:22:05.511Z,2.86
2022-10-13T12:26:05.812Z,2.86
2022-10-13T12:30:11.245Z,2.86
2022-10-13T12:34:05.923Z,2.86
2022-10-13T12:38:05.702Z,2.86
2022-10-13T12:42:05.463Z,2.86
2022-10-13T12:46:10.472Z,2.86
2022-10-13T12:50:05.794Z,2.86
2022-10-13T12:54:05.498Z,2.86
2022-10-13T12:58:05.143Z,2.86
2022-10-13T13:02:08.452Z,2.86
2022-10-13T13:06:11.120Z,2.86
2022-10-13T13:10:05.326Z,2.86
2022-10-13T13:14:05.175Z,2.86
2022-10-13T13:18:41.994Z,2.86
2022-10-13T13:22:05.699Z,2.86
2022-10-13T13:26:32.136Z,2.86
2022-10-13T13:30:05.737Z,2.86
2022-10-13T13:34:05.616Z,2.86
2022-10-13T13:38:06.370Z,2.86
2022-10-13T13:42:11.505Z,2.86
2022-10-13T13:46:05.166Z,2.86
2022-10-13T13:50:05.433Z,2.86
2022-10-13T13:54:05.174Z,7.51
2022-10-13T13:58:07.227Z,0.34
2022-10-13T14:02:10.364Z,0.3
2022-10-13T14:06:05.490Z,0.2
2022-10-13T14:10:12.913Z,0.17
2022-10-13T14:14:05.144Z,0.17
2022-10-13T14:18:05.071Z,0.15
2022-10-13T14:22:09.320Z,0.14
2022-10-13T14:26:05.617Z,0.14
2022-10-13T14:30:11.005Z,0.14
2022-10-13T14:34:05.970Z,0.14
2022-10-13T14:38:09.171Z,0.14
2022-10-13T14:42:05.744Z,0.13
2022-10-13T14:46:05.188Z,0.13
2022-10-13T14:50:06.164Z,0.13
2022-10-13T14:54:05.791Z,0.14
2022-10-13T14:58:05.278Z,0.13
2022-10-13T15:02:08.053Z,0.13
2022-10-13T15:06:05.880Z,0.13
2022-10-13T15:10:37.924Z,0.13
2022-10-13T15:14:05.424Z,0.13
2022-10-13T15:18:05.133Z,0.13
2022-10-13T15:22:05.547Z,0.13
2022-10-13T15:26:05.108Z,0.13
2022-10-13T15:30:05.796Z,0.13
2022-10-13T15:34:06.348Z,0.13
2022-10-13T15:38:05.498Z,0.13
2022-10-13T15:42:05.495Z,0.13
2022-10-13T15:46:49.143Z,0.13
2022-10-13T15:50:05.774Z,0.13
2022-10-13T15:54:06.609Z,0.13
2022-10-13T15:58:09.977Z,0.13
2022-10-13T16:02:08.544Z,0.13
2022-10-13T16:06:07.767Z,0.13
2022-10-13T16:10:05.421Z,0.13
2022-10-13T16:14:08.640Z,0.13
2022-10-13T16:18:06.017Z,0.13
2022-10-13T16:22:05.081Z,0.13
2022-10-13T16:26:05.576Z,0.13
2022-10-13T16:30:05.766Z,0.13
2022-10-13T16:34:05.421Z,0.13
2022-10-13T16:38:06.063Z,0.13
2022-10-13T16:42:05.383Z,0.13
2022-10-13T16:46:34.235Z,0.13
2022-10-13T16:50:05.856Z,0.13
2022-10-13T16:54:08.870Z,0.13
2022-10-13T16:58:06.605Z,0.13
2022-10-13T17:02:11.220Z,0.13
2022-10-13T17:06:09.139Z,0.13
2022-10-13T17:10:05.927Z,0.13
2022-10-13T17:14:05.859Z,0.13
2022-10-13T17:18:06.746Z,0.13
2022-10-13T17:22:06.279Z,0.13
2022-10-13T17:26:06.415Z,0.13
2022-10-13T17:30:05.899Z,0.13
2022-10-13T17:34:11.822Z,0.13
2022-10-13T17:38:05.600Z,0.13
2022-10-13T17:42:07.369Z,0.13
2022-10-13T17:46:31.010Z,0.13
2022-10-13T17:50:07.499Z,0.13
2022-10-13T17:54:05.209Z,0.13
2022-10-13T17:58:06.226Z,0.13
2022-10-13T18:02:42.259Z,0.13
2022-10-13T18:06:05.568Z,0.13
2022-10-13T18:10:06.061Z,0.13
2022-10-13T18:14:05.539Z,0.13
2022-10-13T18:18:06.298Z,0.13
2022-10-13T18:22:05.672Z,0.13
2022-10-13T18:26:05.180Z,0.13
2022-10-13T18:30:06.452Z,0.13
2022-10-13T18:34:05.664Z,0.13
2022-10-13T18:38:05.787Z,0.13
2022-10-13T18:42:05.395Z,0.13
2022-10-13T18:46:05.971Z,0.13
2022-10-13T18:50:05.608Z,0.13
2022-10-13T18:54:05.885Z,0.13
2022-10-13T18:58:06.447Z,0.13
2022-10-13T19:02:08.584Z,0.13
2022-10-13T19:06:05.752Z,0.13
2022-10-13T19:10:05.019Z,0.13
2022-10-13T19:14:05.576Z,0.13
2022-10-13T19:18:10.027Z,0.13
2022-10-13T19:22:05.735Z,0.13
2022-10-13T19:26:05.112Z,0.13
2022-10-13T19:30:05.972Z,0.13
2022-10-13T19:34:07.508Z,0.13
2022-10-13T19:38:06.869Z,0.13
2022-10-13T19:42:12.102Z,0.13
2022-10-13T19:46:10.938Z,0.13
2022-10-13T19:50:05.894Z,0.13
2022-10-13T19:54:05.850Z,0.13
2022-10-13T19:58:06.210Z,0.13
2022-10-13T20:02:09.100Z,0.13
2022-10-13T20:06:10.483Z,0.13
2022-10-13T20:10:05.711Z,0.13
2022-10-13T20:14:05.909Z,0.13
2022-10-13T20:18:06.164Z,0.13
2022-10-13T20:22:05.222Z,0.13
2022-10-13T20:26:05.141Z,0.13
2022-10-13T20:30:12.764Z,0.13
2022-10-13T20:34:05.776Z,0.13
2022-10-13T20:38:09.312Z,0.13
2022-10-13T20:42:05.743Z,0.13
2022-10-13T20:46:05.931Z,0.13
2022-10-13T20:50:35.475Z,0.13
2022-10-13T20:54:05.075Z,0.13
2022-10-13T20:58:06.283Z,0.13
2022-10-13T21:02:08.551Z,0.13
2022-10-13T21:06:05.509Z,0.13
2022-10-13T21:10:05.807Z,0.13
2022-10-13T21:14:05.834Z,0.13
2022-10-13T21:18:06.008Z,0.13
2022-10-13T21:22:05.178Z,0.13
2022-10-13T21:26:05.039Z,0.13
2022-10-13T21:30:06.279Z,0.13
2022-10-13T21:34:09.427Z,0.13
2022-10-13T21:38:06.131Z,0.13
2022-10-13T21:42:12.495Z,0.13
2022-10-13T21:46:05.315Z,0.13
2022-10-13T21:50:05.086Z,0.13
2022-10-13T21:54:05.396Z,0.13
2022-10-13T21:58:05.823Z,0.13
2022-10-13T22:11:56.583Z,0.13
2022-10-13T22:14:05.992Z,0.13
2022-10-13T22:16:05.701Z,0.13
2022-10-13T22:18:06.276Z,0.13
2022-10-13T22:20:05.270Z,0.13
2022-10-13T22:22:05.317Z,0.13
2022-10-13T22:24:12.028Z,0.13
2022-10-13T22:26:05.643Z,0.13
2022-10-13T22:28:06.145Z,0.13
2022-10-13T22:30:07.897Z,0.13
2022-10-13T22:32:05.662Z,0.13
2022-10-13T22:34:05.827Z,0.13
2022-10-13T22:36:05.678Z,0.13
2022-10-13T22:38:06.406Z,0.13
2022-10-13T22:40:04.974Z,0.13
2022-10-13T22:42:05.965Z,0.13
2022-10-13T22:44:05.799Z,0.13
2022-10-13T22:46:05.550Z,0.13
2022-10-13T22:48:06.550Z,0.13
2022-10-13T22:50:10.815Z,0.13
2022-10-13T22:52:07.236Z,0.13
2022-10-13T22:54:08.504Z,0.13
2022-10-13T22:56:05.423Z,0.13
2022-10-13T22:58:05.734Z,0.13
2022-10-13T23:00:05.723Z,0.13
2022-10-13T23:02:08.597Z,0.13
2022-10-13T23:04:05.931Z,0.13
2022-10-13T23:06:05.340Z,0.13
2022-10-13T23:08:06.306Z,0.13
2022-10-13T23:10:05.846Z,0.13
2022-10-13T23:12:11.039Z,0.13
2022-10-13T23:14:05.760Z,0.13
2022-10-13T23:16:05.673Z,0.13
2022-10-13T23:18:06.314Z,0.13
2022-10-13T23:20:05.245Z,0.13
2022-10-13T23:22:05.478Z,0.13
2022-10-13T23:24:05.025Z,0.13
2022-10-13T23:26:05.801Z,0.13
2022-10-13T23:28:05.812Z,0.13
2022-10-13T23:30:06.363Z,0.13
2022-10-13T23:32:09.565Z,0.13
2022-10-13T23:34:11.308Z,0.13
2022-10-13T23:36:05.081Z,0.13
2022-10-13T23:38:05.668Z,0.13
2022-10-13T23:40:05.479Z,0.13
2022-10-13T23:42:05.898Z,0.13
2022-10-13T23:44:05.942Z,0.13
2022-10-13T23:46:05.791Z,0.13
2022-10-13T23:48:05.478Z,0.13
2022-10-13T23:50:05.669Z,0.13
2022-10-13T23:52:08.532Z,0.13
2022-10-13T23:54:05.644Z,0.13
2022-10-13T23:56:05.770Z,0.13
2022-10-13T23:58:05.805Z,0.13
